sensor_id;sensor_type;location;lat;lon;timestamp;P1;durP1;ratioP1;P2;durP2;ratioP2
27977;SDS011;15314;49.248;6.968;2023-05-10T00:00:30;7.70;;;7.10;;
27977;SDS011;15314;49.248;6.968;2023-05-10T00:01:31;7.20;;;6.80;;
27977;SDS011;15314;49.248;6.968;2023-05-10T00:02:32;7.90;;;7.30;;
27977;SDS011;15314;49.248;6.968;2023-05-10T00:03:32;7.65;;;7.35;;
27977;SDS011;15314;49.248;6.968;2023-05-10T00:04:33;7.38;;;7.00;;
27977;SDS011;15314;49.248;6.968;2023-05-10T00:05:34;7.75;;;7.35;;
27977;SDS011;15314;49.248;6.968;2023-05-10T00:06:34;7.53;;;7.13;;
27977;SDS011;15314;49.248;6.968;2023-05-10T00:07:35;7.55;;;7.13;;
27977;SDS011;15314;49.248;6.968;2023-05-10T00:08:36;7.60;;;7.00;;
27977;SDS011;15314;49.248;6.968;2023-05-10T00:09:36;7.28;;;6.97;;
27977;SDS011;15314;49.248;6.968;2023-05-10T00:10:37;7.00;;;6.70;;
27977;SDS011;15314;49.248;6.968;2023-05-10T00:11:38;7.65;;;7.05;;
27977;SDS011;15314;49.248;6.968;2023-05-10T00:12:38;7.15;;;6.85;;
27977;SDS011;15314;49.248;6.968;2023-05-10T00:13:39;6.63;;;6.32;;
27977;SDS011;15314;49.248;6.968;2023-05-10T00:14:40;7.78;;;7.22;;
27977;SDS011;15314;49.248;6.968;2023-05-10T00:15:41;8.35;;;7.78;;
27977;SDS011;15314;49.248;6.968;2023-05-10T00:16:41;7.43;;;7.13;;
27977;SDS011;15314;49.248;6.968;2023-05-10T00:17:42;7.32;;;6.93;;
27977;SDS011;15314;49.248;6.968;2023-05-10T00:18:43;7.53;;;7.13;;
27977;SDS011;15314;49.248;6.968;2023-05-10T00:19:43;7.60;;;7.10;;
27977;SDS011;15314;49.248;6.968;2023-05-10T00:20:44;8.43;;;8.02;;
27977;SDS011;15314;49.248;6.968;2023-05-10T00:21:46;7.60;;;7.20;;
27977;SDS011;15314;49.248;6.968;2023-05-10T00:22:46;8.45;;;7.93;;
27977;SDS011;15314;49.248;6.968;2023-05-10T00:23:47;7.47;;;7.18;;
27977;SDS011;15314;49.248;6.968;2023-05-10T00:24:47;8.60;;;8.10;;
27977;SDS011;15314;49.248;6.968;2023-05-10T00:25:48;7.55;;;7.20;;
27977;SDS011;15314;49.248;6.968;2023-05-10T00:26:49;8.13;;;7.72;;
27977;SDS011;15314;49.248;6.968;2023-05-10T00:27:50;9.57;;;8.90;;
27977;SDS011;15314;49.248;6.968;2023-05-10T00:28:50;8.02;;;7.63;;
27977;SDS011;15314;49.248;6.968;2023-05-10T00:29:51;8.45;;;7.85;;
27977;SDS011;15314;49.248;6.968;2023-05-10T00:30:52;9.38;;;8.88;;
27977;SDS011;15314;49.248;6.968;2023-05-10T00:31:53;8.65;;;8.15;;
27977;SDS011;15314;49.248;6.968;2023-05-10T00:32:53;8.13;;;7.72;;
27977;SDS011;15314;49.248;6.968;2023-05-10T00:33:54;10.35;;;9.57;;
27977;SDS011;15314;49.248;6.968;2023-05-10T00:34:55;9.43;;;8.93;;
27977;SDS011;15314;49.248;6.968;2023-05-10T00:35:56;9.20;;;8.68;;
27977;SDS011;15314;49.248;6.968;2023-05-10T00:36:56;9.23;;;8.45;;
27977;SDS011;15314;49.248;6.968;2023-05-10T00:37:57;8.77;;;8.30;;
27977;SDS011;15314;49.248;6.968;2023-05-10T00:38:58;9.30;;;8.80;;
27977;SDS011;15314;49.248;6.968;2023-05-10T00:39:59;10.00;;;9.23;;
27977;SDS011;15314;49.248;6.968;2023-05-10T00:41:00;9.88;;;9.38;;
27977;SDS011;15314;49.248;6.968;2023-05-10T00:42:00;9.35;;;8.88;;
27977;SDS011;15314;49.248;6.968;2023-05-10T00:43:01;9.10;;;8.60;;
27977;SDS011;15314;49.248;6.968;2023-05-10T00:44:03;9.70;;;9.10;;
27977;SDS011;15314;49.248;6.968;2023-05-10T00:45:04;8.95;;;8.45;;
27977;SDS011;15314;49.248;6.968;2023-05-10T00:46:05;8.45;;;8.05;;
27977;SDS011;15314;49.248;6.968;2023-05-10T00:47:07;9.27;;;8.80;;
27977;SDS011;15314;49.248;6.968;2023-05-10T00:48:08;10.77;;;10.18;;
27977;SDS011;15314;49.248;6.968;2023-05-10T00:49:09;9.60;;;8.90;;
27977;SDS011;15314;49.248;6.968;2023-05-10T00:50:09;9.50;;;9.02;;
27977;SDS011;15314;49.248;6.968;2023-05-10T00:51:10;9.25;;;8.52;;
27977;SDS011;15314;49.248;6.968;2023-05-10T00:52:11;9.10;;;8.40;;
27977;SDS011;15314;49.248;6.968;2023-05-10T00:53:11;9.48;;;8.93;;
27977;SDS011;15314;49.248;6.968;2023-05-10T00:54:12;9.43;;;8.80;;
27977;SDS011;15314;49.248;6.968;2023-05-10T00:55:15;10.15;;;9.57;;
27977;SDS011;15314;49.248;6.968;2023-05-10T00:56:15;11.40;;;10.50;;
27977;SDS011;15314;49.248;6.968;2023-05-10T00:57:17;10.20;;;9.43;;
27977;SDS011;15314;49.248;6.968;2023-05-10T00:58:17;9.45;;;8.85;;
27977;SDS011;15314;49.248;6.968;2023-05-10T00:59:18;10.38;;;9.75;;
27977;SDS011;15314;49.248;6.968;2023-05-10T01:00:19;11.02;;;10.23;;
27977;SDS011;15314;49.248;6.968;2023-05-10T01:01:20;9.43;;;8.93;;
27977;SDS011;15314;49.248;6.968;2023-05-10T01:02:21;9.95;;;9.30;;
27977;SDS011;15314;49.248;6.968;2023-05-10T01:03:21;10.25;;;9.43;;
27977;SDS011;15314;49.248;6.968;2023-05-10T01:04:22;10.63;;;9.60;;
27977;SDS011;15314;49.248;6.968;2023-05-10T01:05:25;9.40;;;8.90;;
27977;SDS011;15314;49.248;6.968;2023-05-10T01:06:27;9.30;;;8.70;;
27977;SDS011;15314;49.248;6.968;2023-05-10T01:07:28;9.60;;;9.00;;
27977;SDS011;15314;49.248;6.968;2023-05-10T01:08:29;10.13;;;9.45;;
27977;SDS011;15314;49.248;6.968;2023-05-10T01:09:30;9.75;;;8.95;;
27977;SDS011;15314;49.248;6.968;2023-05-10T01:10:32;9.55;;;8.88;;
27977;SDS011;15314;49.248;6.968;2023-05-10T01:11:35;9.90;;;9.30;;
27977;SDS011;15314;49.248;6.968;2023-05-10T01:12:39;8.98;;;8.38;;
27977;SDS011;15314;49.248;6.968;2023-05-10T01:13:43;9.40;;;8.90;;
27977;SDS011;15314;49.248;6.968;2023-05-10T01:14:46;9.90;;;9.40;;
27977;SDS011;15314;49.248;6.968;2023-05-10T01:15:47;9.55;;;9.05;;
27977;SDS011;15314;49.248;6.968;2023-05-10T01:16:49;10.13;;;9.40;;
27977;SDS011;15314;49.248;6.968;2023-05-10T01:17:50;9.50;;;9.02;;
27977;SDS011;15314;49.248;6.968;2023-05-10T01:18:51;9.52;;;9.00;;
27977;SDS011;15314;49.248;6.968;2023-05-10T01:19:52;10.60;;;9.93;;
27977;SDS011;15314;49.248;6.968;2023-05-10T01:23:45;11.20;;;10.50;;
27977;SDS011;15314;49.248;6.968;2023-05-10T01:34:20;10.93;;;10.23;;
27977;SDS011;15314;49.248;6.968;2023-05-10T01:35:37;10.57;;;9.90;;
27977;SDS011;15314;49.248;6.968;2023-05-10T01:36:48;11.77;;;10.77;;
27977;SDS011;15314;49.248;6.968;2023-05-10T01:42:22;9.93;;;9.43;;
27977;SDS011;15314;49.248;6.968;2023-05-10T01:43:28;10.85;;;10.05;;
27977;SDS011;15314;49.248;6.968;2023-05-10T01:46:03;10.27;;;9.68;;
27977;SDS011;15314;49.248;6.968;2023-05-10T01:47:11;11.07;;;10.38;;
27977;SDS011;15314;49.248;6.968;2023-05-10T01:48:18;9.65;;;9.10;;
27977;SDS011;15314;49.248;6.968;2023-05-10T01:49:25;11.07;;;10.38;;
27977;SDS011;15314;49.248;6.968;2023-05-10T01:50:29;10.75;;;9.88;;
27977;SDS011;15314;49.248;6.968;2023-05-10T01:51:47;9.85;;;9.25;;
27977;SDS011;15314;49.248;6.968;2023-05-10T01:52:53;11.88;;;10.77;;
27977;SDS011;15314;49.248;6.968;2023-05-10T01:53:58;11.38;;;10.57;;
27977;SDS011;15314;49.248;6.968;2023-05-10T01:55:11;11.30;;;10.27;;
27977;SDS011;15314;49.248;6.968;2023-05-10T01:56:16;10.75;;;9.82;;
27977;SDS011;15314;49.248;6.968;2023-05-10T01:57:19;11.13;;;10.13;;
27977;SDS011;15314;49.248;6.968;2023-05-10T01:58:27;11.10;;;10.13;;
27977;SDS011;15314;49.248;6.968;2023-05-10T01:59:31;10.75;;;9.88;;
27977;SDS011;15314;49.248;6.968;2023-05-10T02:00:42;11.00;;;10.23;;
27977;SDS011;15314;49.248;6.968;2023-05-10T02:01:44;11.05;;;10.18;;
27977;SDS011;15314;49.248;6.968;2023-05-10T02:02:47;10.10;;;9.50;;
27977;SDS011;15314;49.248;6.968;2023-05-10T02:03:49;11.27;;;10.38;;
27977;SDS011;15314;49.248;6.968;2023-05-10T02:04:51;10.98;;;10.10;;
27977;SDS011;15314;49.248;6.968;2023-05-10T02:05:55;10.85;;;10.05;;
27977;SDS011;15314;49.248;6.968;2023-05-10T02:06:57;10.57;;;9.82;;
27977;SDS011;15314;49.248;6.968;2023-05-10T02:07:57;11.07;;;10.27;;
27977;SDS011;15314;49.248;6.968;2023-05-10T02:09:01;10.90;;;10.20;;
27977;SDS011;15314;49.248;6.968;2023-05-10T02:10:05;10.63;;;9.77;;
27977;SDS011;15314;49.248;6.968;2023-05-10T02:11:07;10.68;;;9.98;;
27977;SDS011;15314;49.248;6.968;2023-05-10T02:12:11;12.30;;;11.10;;
27977;SDS011;15314;49.248;6.968;2023-05-10T02:13:14;12.02;;;11.00;;
27977;SDS011;15314;49.248;6.968;2023-05-10T02:14:16;10.93;;;10.07;;
27977;SDS011;15314;49.248;6.968;2023-05-10T02:15:20;11.00;;;10.30;;
27977;SDS011;15314;49.248;6.968;2023-05-10T02:16:23;11.38;;;10.68;;
27977;SDS011;15314;49.248;6.968;2023-05-10T02:17:26;10.93;;;10.07;;
27977;SDS011;15314;49.248;6.968;2023-05-10T02:18:28;11.63;;;10.85;;
27977;SDS011;15314;49.248;6.968;2023-05-10T02:19:31;10.88;;;10.07;;
27977;SDS011;15314;49.248;6.968;2023-05-10T02:20:32;11.73;;;10.75;;
27977;SDS011;15314;49.248;6.968;2023-05-10T02:21:34;10.85;;;10.15;;
27977;SDS011;15314;49.248;6.968;2023-05-10T02:22:37;11.73;;;10.98;;
27977;SDS011;15314;49.248;6.968;2023-05-10T02:23:40;12.10;;;11.05;;
27977;SDS011;15314;49.248;6.968;2023-05-10T02:24:41;11.52;;;10.80;;
27977;SDS011;15314;49.248;6.968;2023-05-10T02:25:43;11.68;;;10.98;;
27977;SDS011;15314;49.248;6.968;2023-05-10T02:26:45;11.65;;;10.80;;
27977;SDS011;15314;49.248;6.968;2023-05-10T02:27:47;12.18;;;11.23;;
27977;SDS011;15314;49.248;6.968;2023-05-10T02:28:48;11.50;;;10.70;;
27977;SDS011;15314;49.248;6.968;2023-05-10T02:29:50;11.93;;;10.77;;
27977;SDS011;15314;49.248;6.968;2023-05-10T02:30:52;11.50;;;10.60;;
27977;SDS011;15314;49.248;6.968;2023-05-10T02:31:54;11.88;;;10.68;;
27977;SDS011;15314;49.248;6.968;2023-05-10T02:32:56;12.00;;;11.13;;
27977;SDS011;15314;49.248;6.968;2023-05-10T02:33:57;11.50;;;10.70;;
27977;SDS011;15314;49.248;6.968;2023-05-10T02:35:00;13.18;;;12.38;;
27977;SDS011;15314;49.248;6.968;2023-05-10T02:36:03;11.52;;;10.63;;
27977;SDS011;15314;49.248;6.968;2023-05-10T02:37:05;12.15;;;11.45;;
27977;SDS011;15314;49.248;6.968;2023-05-10T02:38:06;12.15;;;11.40;;
27977;SDS011;15314;49.248;6.968;2023-05-10T02:39:09;12.32;;;11.57;;
27977;SDS011;15314;49.248;6.968;2023-05-10T02:40:12;11.60;;;10.90;;
27977;SDS011;15314;49.248;6.968;2023-05-10T02:41:14;12.40;;;11.57;;
27977;SDS011;15314;49.248;6.968;2023-05-10T02:42:16;11.98;;;11.05;;
27977;SDS011;15314;49.248;6.968;2023-05-10T02:43:18;13.00;;;12.15;;
27977;SDS011;15314;49.248;6.968;2023-05-10T02:44:23;11.75;;;10.95;;
27977;SDS011;15314;49.248;6.968;2023-05-10T02:45:27;11.73;;;11.02;;
27977;SDS011;15314;49.248;6.968;2023-05-10T02:46:31;12.38;;;11.68;;
27977;SDS011;15314;49.248;6.968;2023-05-10T02:47:31;12.57;;;11.80;;
27977;SDS011;15314;49.248;6.968;2023-05-10T02:48:32;12.38;;;11.57;;
27977;SDS011;15314;49.248;6.968;2023-05-10T02:49:33;12.52;;;11.70;;
27977;SDS011;15314;49.248;6.968;2023-05-10T02:50:35;12.40;;;11.50;;
27977;SDS011;15314;49.248;6.968;2023-05-10T02:51:37;12.07;;;11.07;;
27977;SDS011;15314;49.248;6.968;2023-05-10T02:52:46;12.63;;;11.75;;
27977;SDS011;15314;49.248;6.968;2023-05-10T02:53:49;13.23;;;12.27;;
27977;SDS011;15314;49.248;6.968;2023-05-10T02:54:58;12.65;;;11.65;;
27977;SDS011;15314;49.248;6.968;2023-05-10T02:56:10;12.43;;;11.07;;
27977;SDS011;15314;49.248;6.968;2023-05-10T02:57:15;13.20;;;12.05;;
27977;SDS011;15314;49.248;6.968;2023-05-10T02:58:22;12.45;;;11.50;;
27977;SDS011;15314;49.248;6.968;2023-05-10T02:59:32;13.07;;;12.25;;
27977;SDS011;15314;49.248;6.968;2023-05-10T03:00:33;12.40;;;11.40;;
27977;SDS011;15314;49.248;6.968;2023-05-10T03:01:34;12.35;;;11.43;;
27977;SDS011;15314;49.248;6.968;2023-05-10T03:02:34;12.23;;;11.32;;
27977;SDS011;15314;49.248;6.968;2023-05-10T03:03:36;12.50;;;11.30;;
27977;SDS011;15314;49.248;6.968;2023-05-10T03:04:36;12.90;;;12.02;;
27977;SDS011;15314;49.248;6.968;2023-05-10T03:05:37;22.25;;;12.65;;
27977;SDS011;15314;49.248;6.968;2023-05-10T03:06:38;12.68;;;11.77;;
27977;SDS011;15314;49.248;6.968;2023-05-10T03:07:38;11.85;;;11.15;;
27977;SDS011;15314;49.248;6.968;2023-05-10T03:08:39;12.43;;;11.63;;
27977;SDS011;15314;49.248;6.968;2023-05-10T03:09:40;12.25;;;11.40;;
27977;SDS011;15314;49.248;6.968;2023-05-10T03:10:42;11.82;;;10.82;;
27977;SDS011;15314;49.248;6.968;2023-05-10T03:11:55;11.93;;;11.23;;
27977;SDS011;15314;49.248;6.968;2023-05-10T03:13:20;11.35;;;10.60;;
27977;SDS011;15314;49.248;6.968;2023-05-10T03:17:11;13.20;;;12.18;;
27977;SDS011;15314;49.248;6.968;2023-05-10T03:18:22;11.73;;;10.82;;
27977;SDS011;15314;49.248;6.968;2023-05-10T03:19:32;11.82;;;11.05;;
27977;SDS011;15314;49.248;6.968;2023-05-10T03:20:46;12.68;;;11.75;;
27977;SDS011;15314;49.248;6.968;2023-05-10T03:21:50;13.13;;;12.20;;
27977;SDS011;15314;49.248;6.968;2023-05-10T03:22:57;10.93;;;10.23;;
27977;SDS011;15314;49.248;6.968;2023-05-10T03:24:08;12.27;;;11.45;;
27977;SDS011;15314;49.248;6.968;2023-05-10T03:25:12;12.45;;;11.55;;
27977;SDS011;15314;49.248;6.968;2023-05-10T03:26:20;12.52;;;11.73;;
27977;SDS011;15314;49.248;6.968;2023-05-10T03:27:26;14.15;;;13.13;;
27977;SDS011;15314;49.248;6.968;2023-05-10T03:28:28;11.35;;;10.43;;
27977;SDS011;15314;49.248;6.968;2023-05-10T03:29:30;10.60;;;9.90;;
27977;SDS011;15314;49.248;6.968;2023-05-10T03:30:31;11.73;;;10.95;;
27977;SDS011;15314;49.248;6.968;2023-05-10T03:31:33;11.70;;;10.90;;
27977;SDS011;15314;49.248;6.968;2023-05-10T03:32:34;11.98;;;11.13;;
27977;SDS011;15314;49.248;6.968;2023-05-10T03:33:35;10.55;;;9.85;;
27977;SDS011;15314;49.248;6.968;2023-05-10T03:34:36;11.98;;;11.18;;
27977;SDS011;15314;49.248;6.968;2023-05-10T03:35:43;11.13;;;10.52;;
27977;SDS011;15314;49.248;6.968;2023-05-10T03:36:45;10.90;;;10.30;;
27977;SDS011;15314;49.248;6.968;2023-05-10T03:37:46;12.27;;;11.25;;
27977;SDS011;15314;49.248;6.968;2023-05-10T03:38:47;11.45;;;10.75;;
27977;SDS011;15314;49.248;6.968;2023-05-10T03:39:48;11.02;;;10.32;;
27977;SDS011;15314;49.248;6.968;2023-05-10T03:40:48;11.80;;;11.05;;
27977;SDS011;15314;49.248;6.968;2023-05-10T03:41:49;11.15;;;10.38;;
27977;SDS011;15314;49.248;6.968;2023-05-10T03:42:49;11.57;;;10.77;;
27977;SDS011;15314;49.248;6.968;2023-05-10T03:43:50;11.18;;;10.55;;
27977;SDS011;15314;49.248;6.968;2023-05-10T03:44:51;11.73;;;10.95;;
27977;SDS011;15314;49.248;6.968;2023-05-10T03:45:52;11.35;;;10.60;;
27977;SDS011;15314;49.248;6.968;2023-05-10T03:46:52;11.65;;;10.90;;
27977;SDS011;15314;49.248;6.968;2023-05-10T03:47:53;11.93;;;11.13;;
27977;SDS011;15314;49.248;6.968;2023-05-10T03:48:54;11.98;;;11.00;;
27977;SDS011;15314;49.248;6.968;2023-05-10T03:49:54;11.80;;;10.98;;
27977;SDS011;15314;49.248;6.968;2023-05-10T03:50:55;11.70;;;10.88;;
27977;SDS011;15314;49.248;6.968;2023-05-10T03:51:56;11.68;;;10.88;;
27977;SDS011;15314;49.248;6.968;2023-05-10T03:52:56;13.18;;;11.82;;
27977;SDS011;15314;49.248;6.968;2023-05-10T03:53:57;12.45;;;11.65;;
27977;SDS011;15314;49.248;6.968;2023-05-10T03:54:58;12.85;;;12.05;;
27977;SDS011;15314;49.248;6.968;2023-05-10T03:55:58;11.40;;;10.70;;
27977;SDS011;15314;49.248;6.968;2023-05-10T03:56:59;11.50;;;10.55;;
27977;SDS011;15314;49.248;6.968;2023-05-10T03:58:00;10.82;;;9.95;;
27977;SDS011;15314;49.248;6.968;2023-05-10T03:59:01;12.85;;;11.85;;
27977;SDS011;15314;49.248;6.968;2023-05-10T04:00:07;11.40;;;10.60;;
27977;SDS011;15314;49.248;6.968;2023-05-10T04:01:08;11.73;;;10.93;;
27977;SDS011;15314;49.248;6.968;2023-05-10T04:02:09;11.82;;;10.82;;
27977;SDS011;15314;49.248;6.968;2023-05-10T04:03:10;12.05;;;11.13;;
27977;SDS011;15314;49.248;6.968;2023-05-10T04:04:11;11.43;;;10.65;;
27977;SDS011;15314;49.248;6.968;2023-05-10T04:05:14;14.30;;;13.20;;
27977;SDS011;15314;49.248;6.968;2023-05-10T04:06:14;11.95;;;11.18;;
27977;SDS011;15314;49.248;6.968;2023-05-10T04:07:15;11.75;;;10.95;;
27977;SDS011;15314;49.248;6.968;2023-05-10T04:08:15;13.38;;;10.88;;
27977;SDS011;15314;49.248;6.968;2023-05-10T04:09:16;11.82;;;10.82;;
27977;SDS011;15314;49.248;6.968;2023-05-10T04:10:17;11.25;;;10.43;;
27977;SDS011;15314;49.248;6.968;2023-05-10T04:11:18;11.57;;;10.88;;
27977;SDS011;15314;49.248;6.968;2023-05-10T04:12:18;11.95;;;10.95;;
27977;SDS011;15314;49.248;6.968;2023-05-10T04:13:19;12.32;;;11.63;;
27977;SDS011;15314;49.248;6.968;2023-05-10T04:14:21;13.75;;;12.48;;
27977;SDS011;15314;49.248;6.968;2023-05-10T04:15:21;12.68;;;11.68;;
27977;SDS011;15314;49.248;6.968;2023-05-10T04:16:22;12.80;;;11.90;;
27977;SDS011;15314;49.248;6.968;2023-05-10T04:17:22;13.45;;;12.55;;
27977;SDS011;15314;49.248;6.968;2023-05-10T04:18:23;12.25;;;11.55;;
27977;SDS011;15314;49.248;6.968;2023-05-10T04:19:24;12.27;;;11.40;;
27977;SDS011;15314;49.248;6.968;2023-05-10T04:20:28;12.02;;;11.13;;
27977;SDS011;15314;49.248;6.968;2023-05-10T04:21:29;14.15;;;12.95;;
27977;SDS011;15314;49.248;6.968;2023-05-10T04:22:31;13.20;;;12.20;;
27977;SDS011;15314;49.248;6.968;2023-05-10T04:23:32;12.23;;;11.43;;
27977;SDS011;15314;49.248;6.968;2023-05-10T04:24:32;11.82;;;10.95;;
27977;SDS011;15314;49.248;6.968;2023-05-10T04:25:34;12.82;;;11.80;;
27977;SDS011;15314;49.248;6.968;2023-05-10T04:26:35;12.82;;;12.02;;
27977;SDS011;15314;49.248;6.968;2023-05-10T04:27:36;13.02;;;12.13;;
27977;SDS011;15314;49.248;6.968;2023-05-10T04:28:37;13.10;;;12.40;;
27977;SDS011;15314;49.248;6.968;2023-05-10T04:29:37;11.70;;;10.73;;
27977;SDS011;15314;49.248;6.968;2023-05-10T04:30:38;13.00;;;12.00;;
27977;SDS011;15314;49.248;6.968;2023-05-10T04:31:40;13.25;;;12.25;;
27977;SDS011;15314;49.248;6.968;2023-05-10T04:32:41;13.00;;;12.02;;
27977;SDS011;15314;49.248;6.968;2023-05-10T04:33:41;14.27;;;12.95;;
27977;SDS011;15314;49.248;6.968;2023-05-10T04:34:42;12.60;;;11.55;;
27977;SDS011;15314;49.248;6.968;2023-05-10T04:35:43;12.98;;;11.95;;
27977;SDS011;15314;49.248;6.968;2023-05-10T04:36:45;14.02;;;12.90;;
27977;SDS011;15314;49.248;6.968;2023-05-10T04:37:45;12.57;;;11.52;;
27977;SDS011;15314;49.248;6.968;2023-05-10T04:38:46;12.38;;;11.48;;
27977;SDS011;15314;49.248;6.968;2023-05-10T04:39:47;13.05;;;12.02;;
27977;SDS011;15314;49.248;6.968;2023-05-10T04:40:47;11.60;;;10.90;;
27977;SDS011;15314;49.248;6.968;2023-05-10T04:41:48;11.55;;;10.70;;
27977;SDS011;15314;49.248;6.968;2023-05-10T04:42:49;11.93;;;11.13;;
27977;SDS011;15314;49.248;6.968;2023-05-10T04:43:49;12.90;;;11.88;;
27977;SDS011;15314;49.248;6.968;2023-05-10T04:44:50;11.25;;;10.55;;
27977;SDS011;15314;49.248;6.968;2023-05-10T04:45:51;11.27;;;10.65;;
27977;SDS011;15314;49.248;6.968;2023-05-10T04:46:52;12.10;;;11.10;;
27977;SDS011;15314;49.248;6.968;2023-05-10T04:47:53;11.60;;;10.68;;
27977;SDS011;15314;49.248;6.968;2023-05-10T04:48:53;12.02;;;11.00;;
27977;SDS011;15314;49.248;6.968;2023-05-10T04:49:54;13.23;;;12.18;;
27977;SDS011;15314;49.248;6.968;2023-05-10T04:50:54;11.55;;;10.88;;
27977;SDS011;15314;49.248;6.968;2023-05-10T04:51:55;11.80;;;10.98;;
27977;SDS011;15314;49.248;6.968;2023-05-10T04:52:56;11.55;;;10.75;;
27977;SDS011;15314;49.248;6.968;2023-05-10T04:53:57;11.80;;;11.10;;
27977;SDS011;15314;49.248;6.968;2023-05-10T04:54:57;11.80;;;10.77;;
27977;SDS011;15314;49.248;6.968;2023-05-10T04:55:58;10.73;;;10.00;;
27977;SDS011;15314;49.248;6.968;2023-05-10T04:56:58;11.35;;;10.65;;
27977;SDS011;15314;49.248;6.968;2023-05-10T04:57:59;11.18;;;10.45;;
27977;SDS011;15314;49.248;6.968;2023-05-10T04:59:00;10.10;;;9.50;;
27977;SDS011;15314;49.248;6.968;2023-05-10T05:00:01;10.43;;;9.55;;
27977;SDS011;15314;49.248;6.968;2023-05-10T05:01:05;9.98;;;9.48;;
27977;SDS011;15314;49.248;6.968;2023-05-10T05:02:08;10.27;;;9.57;;
27977;SDS011;15314;49.248;6.968;2023-05-10T05:03:09;10.45;;;9.85;;
27977;SDS011;15314;49.248;6.968;2023-05-10T05:04:10;12.05;;;11.27;;
27977;SDS011;15314;49.248;6.968;2023-05-10T05:05:11;10.73;;;10.07;;
27977;SDS011;15314;49.248;6.968;2023-05-10T05:06:12;11.60;;;10.02;;
27977;SDS011;15314;49.248;6.968;2023-05-10T05:07:12;10.93;;;10.10;;
27977;SDS011;15314;49.248;6.968;2023-05-10T05:08:13;11.23;;;10.52;;
27977;SDS011;15314;49.248;6.968;2023-05-10T05:09:14;11.27;;;10.25;;
27977;SDS011;15314;49.248;6.968;2023-05-10T05:10:14;12.95;;;11.80;;
27977;SDS011;15314;49.248;6.968;2023-05-10T05:11:15;11.40;;;10.60;;
27977;SDS011;15314;49.248;6.968;2023-05-10T05:12:16;11.70;;;10.80;;
27977;SDS011;15314;49.248;6.968;2023-05-10T05:13:17;12.00;;;11.05;;
27977;SDS011;15314;49.248;6.968;2023-05-10T05:14:18;10.93;;;10.10;;
27977;SDS011;15314;49.248;6.968;2023-05-10T05:15:20;9.95;;;9.25;;
27977;SDS011;15314;49.248;6.968;2023-05-10T05:16:21;11.23;;;10.23;;
27977;SDS011;15314;49.248;6.968;2023-05-10T05:17:22;10.95;;;10.15;;
27977;SDS011;15314;49.248;6.968;2023-05-10T05:18:22;11.70;;;10.35;;
27977;SDS011;15314;49.248;6.968;2023-05-10T05:19:23;11.02;;;10.32;;
27977;SDS011;15314;49.248;6.968;2023-05-10T05:20:23;10.32;;;9.52;;
27977;SDS011;15314;49.248;6.968;2023-05-10T05:21:24;10.40;;;9.52;;
27977;SDS011;15314;49.248;6.968;2023-05-10T05:22:26;9.70;;;9.20;;
27977;SDS011;15314;49.248;6.968;2023-05-10T05:23:28;14.35;;;13.15;;
27977;SDS011;15314;49.248;6.968;2023-05-10T05:24:28;13.00;;;11.85;;
27977;SDS011;15314;49.248;6.968;2023-05-10T05:25:29;11.32;;;10.63;;
27977;SDS011;15314;49.248;6.968;2023-05-10T05:26:29;10.63;;;10.02;;
27977;SDS011;15314;49.248;6.968;2023-05-10T05:27:30;12.90;;;11.90;;
27977;SDS011;15314;49.248;6.968;2023-05-10T05:28:31;9.90;;;9.27;;
27977;SDS011;15314;49.248;6.968;2023-05-10T05:29:33;10.52;;;9.73;;
27977;SDS011;15314;49.248;6.968;2023-05-10T05:30:34;9.48;;;8.85;;
27977;SDS011;15314;49.248;6.968;2023-05-10T05:31:35;10.32;;;9.45;;
27977;SDS011;15314;49.248;6.968;2023-05-10T05:32:35;10.32;;;9.73;;
27977;SDS011;15314;49.248;6.968;2023-05-10T05:33:36;9.88;;;9.27;;
27977;SDS011;15314;49.248;6.968;2023-05-10T05:34:37;10.13;;;9.38;;
27977;SDS011;15314;49.248;6.968;2023-05-10T05:35:37;9.50;;;8.80;;
27977;SDS011;15314;49.248;6.968;2023-05-10T05:36:38;10.63;;;9.77;;
27977;SDS011;15314;49.248;6.968;2023-05-10T05:37:39;10.52;;;9.93;;
27977;SDS011;15314;49.248;6.968;2023-05-10T05:38:39;9.68;;;9.00;;
27977;SDS011;15314;49.248;6.968;2023-05-10T05:39:40;10.20;;;9.60;;
27977;SDS011;15314;49.248;6.968;2023-05-10T05:40:41;10.35;;;9.75;;
27977;SDS011;15314;49.248;6.968;2023-05-10T05:41:41;9.57;;;9.02;;
27977;SDS011;15314;49.248;6.968;2023-05-10T05:42:42;10.05;;;9.55;;
27977;SDS011;15314;49.248;6.968;2023-05-10T05:43:43;10.43;;;9.82;;
27977;SDS011;15314;49.248;6.968;2023-05-10T05:44:43;9.60;;;9.10;;
27977;SDS011;15314;49.248;6.968;2023-05-10T05:45:44;11.10;;;10.40;;
27977;SDS011;15314;49.248;6.968;2023-05-10T05:46:45;9.15;;;8.45;;
27977;SDS011;15314;49.248;6.968;2023-05-10T05:47:45;11.05;;;10.35;;
27977;SDS011;15314;49.248;6.968;2023-05-10T05:48:46;12.52;;;11.30;;
27977;SDS011;15314;49.248;6.968;2023-05-10T05:49:47;11.07;;;10.27;;
27977;SDS011;15314;49.248;6.968;2023-05-10T05:50:47;9.50;;;8.90;;
27977;SDS011;15314;49.248;6.968;2023-05-10T05:51:48;11.60;;;10.80;;
27977;SDS011;15314;49.248;6.968;2023-05-10T05:52:50;9.85;;;9.35;;
27977;SDS011;15314;49.248;6.968;2023-05-10T05:53:51;10.65;;;9.85;;
27977;SDS011;15314;49.248;6.968;2023-05-10T05:54:51;9.40;;;8.82;;
27977;SDS011;15314;49.248;6.968;2023-05-10T05:55:55;9.95;;;9.55;;
27977;SDS011;15314;49.248;6.968;2023-05-10T05:56:58;12.27;;;11.43;;
27977;SDS011;15314;49.248;6.968;2023-05-10T05:57:59;10.48;;;9.77;;
27977;SDS011;15314;49.248;6.968;2023-05-10T05:59:00;9.95;;;9.23;;
27977;SDS011;15314;49.248;6.968;2023-05-10T06:00:00;9.93;;;9.43;;
27977;SDS011;15314;49.248;6.968;2023-05-10T06:01:02;10.40;;;9.90;;
27977;SDS011;15314;49.248;6.968;2023-05-10T06:02:03;10.23;;;9.63;;
27977;SDS011;15314;49.248;6.968;2023-05-10T06:03:04;10.55;;;9.75;;
27977;SDS011;15314;49.248;6.968;2023-05-10T06:04:04;14.30;;;13.20;;
27977;SDS011;15314;49.248;6.968;2023-05-10T06:05:05;11.82;;;10.93;;
27977;SDS011;15314;49.248;6.968;2023-05-10T06:06:06;10.88;;;10.18;;
27977;SDS011;15314;49.248;6.968;2023-05-10T06:07:07;13.85;;;12.85;;
27977;SDS011;15314;49.248;6.968;2023-05-10T06:08:07;11.15;;;10.43;;
27977;SDS011;15314;49.248;6.968;2023-05-10T06:09:08;13.68;;;12.65;;
27977;SDS011;15314;49.248;6.968;2023-05-10T06:10:09;10.32;;;9.73;;
27977;SDS011;15314;49.248;6.968;2023-05-10T06:11:10;10.10;;;9.60;;
27977;SDS011;15314;49.248;6.968;2023-05-10T06:12:11;10.25;;;9.45;;
27977;SDS011;15314;49.248;6.968;2023-05-10T06:13:11;10.73;;;9.95;;
27977;SDS011;15314;49.248;6.968;2023-05-10T06:14:12;10.45;;;9.40;;
27977;SDS011;15314;49.248;6.968;2023-05-10T06:15:13;10.10;;;9.52;;
27977;SDS011;15314;49.248;6.968;2023-05-10T06:16:13;9.98;;;9.30;;
27977;SDS011;15314;49.248;6.968;2023-05-10T06:17:14;11.65;;;9.75;;
27977;SDS011;15314;49.248;6.968;2023-05-10T06:18:15;10.52;;;9.98;;
27977;SDS011;15314;49.248;6.968;2023-05-10T06:19:15;9.65;;;9.15;;
27977;SDS011;15314;49.248;6.968;2023-05-10T06:20:16;9.40;;;8.90;;
27977;SDS011;15314;49.248;6.968;2023-05-10T06:21:17;10.55;;;9.45;;
27977;SDS011;15314;49.248;6.968;2023-05-10T06:22:18;8.98;;;8.48;;
27977;SDS011;15314;49.248;6.968;2023-05-10T06:23:18;10.18;;;9.57;;
27977;SDS011;15314;49.248;6.968;2023-05-10T06:24:19;10.45;;;9.57;;
27977;SDS011;15314;49.248;6.968;2023-05-10T06:25:19;9.50;;;9.00;;
27977;SDS011;15314;49.248;6.968;2023-05-10T06:26:20;9.35;;;8.77;;
27977;SDS011;15314;49.248;6.968;2023-05-10T06:27:21;10.60;;;9.80;;